sensor_id;sensor_type;location;lat;lon;timestamp;P1;durP1;ratioP1;P2;durP2;ratioP2
70142;SDS011;57509;43.054;-0.040;2022-07-30T00:01:27;15.07;;;2.05;;
70142;SDS011;57509;43.054;-0.040;2022-07-30T00:04:05;2.72;;;1.25;;
70142;SDS011;57509;43.054;-0.040;2022-07-30T00:07:00;5.90;;;1.92;;
70142;SDS011;57509;43.054;-0.040;2022-07-30T00:09:56;5.28;;;1.77;;
70142;SDS011;57509;43.054;-0.040;2022-07-30T00:13:09;3.97;;;1.45;;
70142;SDS011;57509;43.054;-0.040;2022-07-30T00:16:04;7.97;;;1.75;;
70142;SDS011;57509;43.054;-0.040;2022-07-30T00:19:03;6.32;;;1.83;;
70142;SDS011;57509;43.054;-0.040;2022-07-30T00:21:44;4.70;;;1.42;;
70142;SDS011;57509;43.054;-0.040;2022-07-30T00:27:35;7.88;;;1.77;;
70142;SDS011;57509;43.054;-0.040;2022-07-30T00:33:35;7.65;;;1.80;;
70142;SDS011;57509;43.054;-0.040;2022-07-30T00:39:17;2.00;;;1.52;;
70142;SDS011;57509;43.054;-0.040;2022-07-30T00:42:16;4.82;;;1.17;;
70142;SDS011;57509;43.054;-0.040;2022-07-30T00:44:54;5.47;;;2.05;;
70142;SDS011;57509;43.054;-0.040;2022-07-30T00:47:47;8.45;;;2.90;;
70142;SDS011;57509;43.054;-0.040;2022-07-30T00:50:31;8.27;;;1.67;;
70142;SDS011;57509;43.054;-0.040;2022-07-30T00:53:24;15.45;;;2.08;;
70142;SDS011;57509;43.054;-0.040;2022-07-30T00:56:05;8.07;;;2.33;;
70142;SDS011;57509;43.054;-0.040;2022-07-30T00:58:42;6.45;;;1.42;;
70142;SDS011;57509;43.054;-0.040;2022-07-30T01:05:24;6.55;;;1.85;;
70142;SDS011;57509;43.054;-0.040;2022-07-30T01:08:25;2.83;;;1.77;;
70142;SDS011;57509;43.054;-0.040;2022-07-30T01:11:05;10.52;;;1.80;;
70142;SDS011;57509;43.054;-0.040;2022-07-30T01:14:07;15.05;;;2.20;;
70142;SDS011;57509;43.054;-0.040;2022-07-30T01:16:44;13.57;;;1.50;;
70142;SDS011;57509;43.054;-0.040;2022-07-30T01:19:23;5.72;;;1.70;;
70142;SDS011;57509;43.054;-0.040;2022-07-30T01:31:38;1.92;;;1.35;;
70142;SDS011;57509;43.054;-0.040;2022-07-30T01:34:33;2.70;;;1.45;;
70142;SDS011;57509;43.054;-0.040;2022-07-30T01:37:15;6.45;;;1.88;;
70142;SDS011;57509;43.054;-0.040;2022-07-30T01:40:01;11.68;;;2.00;;
70142;SDS011;57509;43.054;-0.040;2022-07-30T01:42:57;9.93;;;2.13;;
70142;SDS011;57509;43.054;-0.040;2022-07-30T01:45:57;3.47;;;1.77;;
70142;SDS011;57509;43.054;-0.040;2022-07-30T01:48:41;2.17;;;1.35;;
70142;SDS011;57509;43.054;-0.040;2022-07-30T01:51:19;3.92;;;1.48;;
70142;SDS011;57509;43.054;-0.040;2022-07-30T01:57:13;9.05;;;2.47;;
70142;SDS011;57509;43.054;-0.040;2022-07-30T02:00:21;10.48;;;1.95;;
70142;SDS011;57509;43.054;-0.040;2022-07-30T02:03:01;4.70;;;1.75;;
70142;SDS011;57509;43.054;-0.040;2022-07-30T02:06:16;8.80;;;2.10;;
70142;SDS011;57509;43.054;-0.040;2022-07-30T02:15:32;5.85;;;1.58;;
70142;SDS011;57509;43.054;-0.040;2022-07-30T02:21:36;3.28;;;1.83;;
70142;SDS011;57509;43.054;-0.040;2022-07-30T02:24:26;5.40;;;1.85;;
70142;SDS011;57509;43.054;-0.040;2022-07-30T02:27:34;17.67;;;2.00;;
70142;SDS011;57509;43.054;-0.040;2022-07-30T02:30:16;8.80;;;2.10;;
70142;SDS011;57509;43.054;-0.040;2022-07-30T02:32:54;8.23;;;2.88;;
70142;SDS011;57509;43.054;-0.040;2022-07-30T02:38:38;10.98;;;1.70;;
70142;SDS011;57509;43.054;-0.040;2022-07-30T02:42:03;7.35;;;1.83;;
70142;SDS011;57509;43.054;-0.040;2022-07-30T02:44:42;5.38;;;2.58;;
70142;SDS011;57509;43.054;-0.040;2022-07-30T02:47:37;5.30;;;2.40;;
70142;SDS011;57509;43.054;-0.040;2022-07-30T02:53:26;7.15;;;1.70;;
70142;SDS011;57509;43.054;-0.040;2022-07-30T02:56:06;4.75;;;1.77;;
70142;SDS011;57509;43.054;-0.040;2022-07-30T02:58:42;4.60;;;2.42;;
70142;SDS011;57509;43.054;-0.040;2022-07-30T03:01:15;3.50;;;1.40;;
70142;SDS011;57509;43.054;-0.040;2022-07-30T03:04:00;4.18;;;2.10;;
70142;SDS011;57509;43.054;-0.040;2022-07-30T03:09:37;14.10;;;2.63;;
70142;SDS011;57509;43.054;-0.040;2022-07-30T03:12:18;6.38;;;2.17;;
70142;SDS011;57509;43.054;-0.040;2022-07-30T03:18:05;3.20;;;1.90;;
70142;SDS011;57509;43.054;-0.040;2022-07-30T03:21:10;3.55;;;2.05;;
70142;SDS011;57509;43.054;-0.040;2022-07-30T03:24:11;3.35;;;1.80;;
70142;SDS011;57509;43.054;-0.040;2022-07-30T03:26:51;6.57;;;2.58;;
70142;SDS011;57509;43.054;-0.040;2022-07-30T03:29:34;5.43;;;2.45;;
70142;SDS011;57509;43.054;-0.040;2022-07-30T03:32:23;5.45;;;2.85;;
70142;SDS011;57509;43.054;-0.040;2022-07-30T03:35:20;11.57;;;2.67;;
70142;SDS011;57509;43.054;-0.040;2022-07-30T03:38:02;6.63;;;2.60;;
70142;SDS011;57509;43.054;-0.040;2022-07-30T03:40:42;12.60;;;3.08;;
70142;SDS011;57509;43.054;-0.040;2022-07-30T03:43:24;4.22;;;1.98;;
70142;SDS011;57509;43.054;-0.040;2022-07-30T03:49:24;6.70;;;2.00;;
70142;SDS011;57509;43.054;-0.040;2022-07-30T03:52:00;8.32;;;2.35;;
70142;SDS011;57509;43.054;-0.040;2022-07-30T03:54:42;4.65;;;2.63;;
70142;SDS011;57509;43.054;-0.040;2022-07-30T03:57:41;5.07;;;2.60;;
70142;SDS011;57509;43.054;-0.040;2022-07-30T04:00:34;3.63;;;1.80;;
70142;SDS011;57509;43.054;-0.040;2022-07-30T04:12:50;6.38;;;2.45;;
70142;SDS011;57509;43.054;-0.040;2022-07-30T04:16:10;3.83;;;2.45;;
70142;SDS011;57509;43.054;-0.040;2022-07-30T04:18:56;6.93;;;2.50;;
70142;SDS011;57509;43.054;-0.040;2022-07-30T04:21:40;2.50;;;2.15;;
70142;SDS011;57509;43.054;-0.040;2022-07-30T04:24:30;2.15;;;1.88;;
70142;SDS011;57509;43.054;-0.040;2022-07-30T04:27:14;2.25;;;1.27;;
70142;SDS011;57509;43.054;-0.040;2022-07-30T04:30:12;5.35;;;1.73;;
70142;SDS011;57509;43.054;-0.040;2022-07-30T04:33:14;3.25;;;1.27;;
70142;SDS011;57509;43.054;-0.040;2022-07-30T04:36:04;7.03;;;2.22;;
70142;SDS011;57509;43.054;-0.040;2022-07-30T04:38:49;28.60;;;1.88;;
70142;SDS011;57509;43.054;-0.040;2022-07-30T04:41:27;6.15;;;1.52;;
70142;SDS011;57509;43.054;-0.040;2022-07-30T04:44:25;3.47;;;1.70;;
70142;SDS011;57509;43.054;-0.040;2022-07-30T04:47:23;5.53;;;1.73;;
70142;SDS011;57509;43.054;-0.040;2022-07-30T04:50:15;5.40;;;1.52;;
70142;SDS011;57509;43.054;-0.040;2022-07-30T04:53:11;1.75;;;1.05;;
70142;SDS011;57509;43.054;-0.040;2022-07-30T04:58:57;4.78;;;1.42;;
70142;SDS011;57509;43.054;-0.040;2022-07-30T05:04:45;1.17;;;1.08;;
70142;SDS011;57509;43.054;-0.040;2022-07-30T05:07:41;5.32;;;1.55;;
70142;SDS011;57509;43.054;-0.040;2022-07-30T05:10:18;2.63;;;1.05;;
70142;SDS011;57509;43.054;-0.040;2022-07-30T05:12:59;7.10;;;1.27;;
70142;SDS011;57509;43.054;-0.040;2022-07-30T05:15:45;3.17;;;1.25;;
70142;SDS011;57509;43.054;-0.040;2022-07-30T05:18:23;5.80;;;1.63;;
70142;SDS011;57509;43.054;-0.040;2022-07-30T05:21:04;4.55;;;1.10;;
70142;SDS011;57509;43.054;-0.040;2022-07-30T05:23:50;2.53;;;1.42;;
70142;SDS011;57509;43.054;-0.040;2022-07-30T05:27:03;1.10;;;1.02;;
70142;SDS011;57509;43.054;-0.040;2022-07-30T05:29:45;6.65;;;1.15;;
70142;SDS011;57509;43.054;-0.040;2022-07-30T05:32:41;6.45;;;1.40;;
70142;SDS011;57509;43.054;-0.040;2022-07-30T05:35:19;1.17;;;1.08;;
70142;SDS011;57509;43.054;-0.040;2022-07-30T05:38:15;2.65;;;1.70;;
70142;SDS011;57509;43.054;-0.040;2022-07-30T05:40:54;5.40;;;1.90;;
70142;SDS011;57509;43.054;-0.040;2022-07-30T05:43:48;2.47;;;1.77;;
70142;SDS011;57509;43.054;-0.040;2022-07-30T05:46:40;3.83;;;2.20;;
70142;SDS011;57509;43.054;-0.040;2022-07-30T05:49:19;2.88;;;1.83;;
70142;SDS011;57509;43.054;-0.040;2022-07-30T05:52:00;4.78;;;1.55;;
70142;SDS011;57509;43.054;-0.040;2022-07-30T05:54:41;3.53;;;2.00;;
70142;SDS011;57509;43.054;-0.040;2022-07-30T05:57:19;3.58;;;2.00;;
70142;SDS011;57509;43.054;-0.040;2022-07-30T05:59:57;4.35;;;2.00;;
70142;SDS011;57509;43.054;-0.040;2022-07-30T06:02:36;4.20;;;2.60;;
70142;SDS011;57509;43.054;-0.040;2022-07-30T06:05:21;9.93;;;3.00;;
70142;SDS011;57509;43.054;-0.040;2022-07-30T06:07:59;4.75;;;2.20;;
70142;SDS011;57509;43.054;-0.040;2022-07-30T06:10:40;7.20;;;3.47;;
70142;SDS011;57509;43.054;-0.040;2022-07-30T06:13:08;7.03;;;3.13;;
70142;SDS011;57509;43.054;-0.040;2022-07-30T06:15:54;10.20;;;3.75;;
70142;SDS011;57509;43.054;-0.040;2022-07-30T06:18:33;4.60;;;3.47;;
70142;SDS011;57509;43.054;-0.040;2022-07-30T06:21:32;6.85;;;4.03;;
70142;SDS011;57509;43.054;-0.040;2022-07-30T06:24:10;11.48;;;4.45;;
70142;SDS011;57509;43.054;-0.040;2022-07-30T06:26:49;8.07;;;6.28;;
70142;SDS011;57509;43.054;-0.040;2022-07-30T06:29:29;16.35;;;6.15;;
70142;SDS011;57509;43.054;-0.040;2022-07-30T06:32:35;8.35;;;5.30;;
70142;SDS011;57509;43.054;-0.040;2022-07-30T06:35:40;17.38;;;5.80;;
70142;SDS011;57509;43.054;-0.040;2022-07-30T06:38:39;12.50;;;6.18;;
70142;SDS011;57509;43.054;-0.040;2022-07-30T06:41:17;7.90;;;5.25;;
70142;SDS011;57509;43.054;-0.040;2022-07-30T06:44:02;10.00;;;5.60;;
70142;SDS011;57509;43.054;-0.040;2022-07-30T06:46:58;12.90;;;5.55;;
70142;SDS011;57509;43.054;-0.040;2022-07-30T06:49:55;16.48;;;6.10;;
70142;SDS011;57509;43.054;-0.040;2022-07-30T06:52:56;12.20;;;5.30;;
70142;SDS011;57509;43.054;-0.040;2022-07-30T06:55:46;20.98;;;5.95;;
70142;SDS011;57509;43.054;-0.040;2022-07-30T06:58:29;13.93;;;5.43;;
70142;SDS011;57509;43.054;-0.040;2022-07-30T07:01:43;11.27;;;5.30;;
70142;SDS011;57509;43.054;-0.040;2022-07-30T07:04:21;10.57;;;6.32;;
70142;SDS011;57509;43.054;-0.040;2022-07-30T07:07:03;13.00;;;5.90;;
70142;SDS011;57509;43.054;-0.040;2022-07-30T07:09:41;10.02;;;5.13;;
70142;SDS011;57509;43.054;-0.040;2022-07-30T07:12:17;8.60;;;4.65;;
70142;SDS011;57509;43.054;-0.040;2022-07-30T07:15:11;15.95;;;5.55;;
70142;SDS011;57509;43.054;-0.040;2022-07-30T07:20:59;7.80;;;4.05;;
70142;SDS011;57509;43.054;-0.040;2022-07-30T07:23:45;8.23;;;4.15;;
70142;SDS011;57509;43.054;-0.040;2022-07-30T07:26:34;13.43;;;5.45;;
70142;SDS011;57509;43.054;-0.040;2022-07-30T07:29:15;8.50;;;4.55;;
70142;SDS011;57509;43.054;-0.040;2022-07-30T07:32:01;12.68;;;5.95;;
70142;SDS011;57509;43.054;-0.040;2022-07-30T07:34:50;9.55;;;5.00;;
70142;SDS011;57509;43.054;-0.040;2022-07-30T07:37:42;8.90;;;3.88;;
70142;SDS011;57509;43.054;-0.040;2022-07-30T07:40:18;7.95;;;4.88;;
70142;SDS011;57509;43.054;-0.040;2022-07-30T07:43:12;16.08;;;5.53;;
70142;SDS011;57509;43.054;-0.040;2022-07-30T07:45:57;7.32;;;4.90;;
70142;SDS011;57509;43.054;-0.040;2022-07-30T07:48:48;13.63;;;6.35;;
70142;SDS011;57509;43.054;-0.040;2022-07-30T07:51:17;7.70;;;4.20;;
70142;SDS011;57509;43.054;-0.040;2022-07-30T07:53:53;7.90;;;3.75;;
70142;SDS011;57509;43.054;-0.040;2022-07-30T07:56:56;7.10;;;4.75;;
70142;SDS011;57509;43.054;-0.040;2022-07-30T07:59:35;10.85;;;4.60;;
70142;SDS011;57509;43.054;-0.040;2022-07-30T08:02:20;7.07;;;4.63;;
70142;SDS011;57509;43.054;-0.040;2022-07-30T08:05:00;6.57;;;4.28;;
70142;SDS011;57509;43.054;-0.040;2022-07-30T08:07:39;6.80;;;3.75;;
70142;SDS011;57509;43.054;-0.040;2022-07-30T08:10:19;11.70;;;4.60;;
70142;SDS011;57509;43.054;-0.040;2022-07-30T08:13:10;5.43;;;3.80;;
70142;SDS011;57509;43.054;-0.040;2022-07-30T08:15:56;5.97;;;4.10;;
70142;SDS011;57509;43.054;-0.040;2022-07-30T08:18:44;5.82;;;4.35;;
70142;SDS011;57509;43.054;-0.040;2022-07-30T08:21:26;10.63;;;4.18;;
70142;SDS011;57509;43.054;-0.040;2022-07-30T08:30:02;6.70;;;4.20;;
70142;SDS011;57509;43.054;-0.040;2022-07-30T08:33:13;7.10;;;3.47;;
70142;SDS011;57509;43.054;-0.040;2022-07-30T08:35:39;10.88;;;4.07;;
70142;SDS011;57509;43.054;-0.040;2022-07-30T08:38:17;6.10;;;3.85;;
70142;SDS011;57509;43.054;-0.040;2022-07-30T08:41:15;8.88;;;3.88;;
70142;SDS011;57509;43.054;-0.040;2022-07-30T08:44:12;8.45;;;3.78;;
70142;SDS011;57509;43.054;-0.040;2022-07-30T08:46:51;6.70;;;4.25;;
70142;SDS011;57509;43.054;-0.040;2022-07-30T08:52:36;6.45;;;3.72;;
70142;SDS011;57509;43.054;-0.040;2022-07-30T08:55:23;7.55;;;3.30;;
70142;SDS011;57509;43.054;-0.040;2022-07-30T08:58:19;7.82;;;3.20;;
70142;SDS011;57509;43.054;-0.040;2022-07-30T09:01:12;5.97;;;3.50;;
70142;SDS011;57509;43.054;-0.040;2022-07-30T09:03:58;12.07;;;4.60;;
70142;SDS011;57509;43.054;-0.040;2022-07-30T09:06:35;4.87;;;3.80;;
70142;SDS011;57509;43.054;-0.040;2022-07-30T09:09:36;5.60;;;4.00;;
70142;SDS011;57509;43.054;-0.040;2022-07-30T09:12:51;7.45;;;3.75;;
70142;SDS011;57509;43.054;-0.040;2022-07-30T09:15:27;7.43;;;3.30;;
70142;SDS011;57509;43.054;-0.040;2022-07-30T09:18:08;7.53;;;3.92;;
70142;SDS011;57509;43.054;-0.040;2022-07-30T09:20:46;5.35;;;2.80;;
70142;SDS011;57509;43.054;-0.040;2022-07-30T09:23:26;6.53;;;3.63;;
70142;SDS011;57509;43.054;-0.040;2022-07-30T09:26:20;3.00;;;2.63;;
70142;SDS011;57509;43.054;-0.040;2022-07-30T09:32:10;8.90;;;3.70;;
70142;SDS011;57509;43.054;-0.040;2022-07-30T09:37:59;9.13;;;3.08;;
70142;SDS011;57509;43.054;-0.040;2022-07-30T09:41:07;9.50;;;3.30;;
70142;SDS011;57509;43.054;-0.040;2022-07-30T09:46:42;5.68;;;2.95;;
70142;SDS011;57509;43.054;-0.040;2022-07-30T09:49:46;4.70;;;2.90;;
70142;SDS011;57509;43.054;-0.040;2022-07-30T09:52:53;4.00;;;2.20;;
70142;SDS011;57509;43.054;-0.040;2022-07-30T09:55:43;7.50;;;2.25;;
70142;SDS011;57509;43.054;-0.040;2022-07-30T10:04:51;3.40;;;2.53;;
70142;SDS011;57509;43.054;-0.040;2022-07-30T10:07:52;3.35;;;2.85;;
70142;SDS011;57509;43.054;-0.040;2022-07-30T10:11:14;4.78;;;2.67;;
70142;SDS011;57509;43.054;-0.040;2022-07-30T10:13:55;2.72;;;2.28;;
70142;SDS011;57509;43.054;-0.040;2022-07-30T10:16:47;4.30;;;2.60;;
70142;SDS011;57509;43.054;-0.040;2022-07-30T10:23:04;2.72;;;2.53;;
70142;SDS011;57509;43.054;-0.040;2022-07-30T10:25:33;4.30;;;2.38;;
70142;SDS011;57509;43.054;-0.040;2022-07-30T10:34:52;3.55;;;2.63;;
70142;SDS011;57509;43.054;-0.040;2022-07-30T10:37:54;4.60;;;2.70;;
70142;SDS011;57509;43.054;-0.040;2022-07-30T10:40:37;6.50;;;2.58;;
70142;SDS011;57509;43.054;-0.040;2022-07-30T10:49:24;11.20;;;3.03;;
70142;SDS011;57509;43.054;-0.040;2022-07-30T10:51:53;5.22;;;2.75;;
70142;SDS011;57509;43.054;-0.040;2022-07-30T10:54:37;9.23;;;3.10;;
70142;SDS011;57509;43.054;-0.040;2022-07-30T10:57:23;2.72;;;2.38;;
70142;SDS011;57509;43.054;-0.040;2022-07-30T11:00:57;6.20;;;3.42;;
70142;SDS011;57509;43.054;-0.040;2022-07-30T11:03:43;4.18;;;2.58;;
70142;SDS011;57509;43.054;-0.040;2022-07-30T11:07:01;3.83;;;3.38;;
70142;SDS011;57509;43.054;-0.040;2022-07-30T11:10:07;4.30;;;2.70;;
70142;SDS011;57509;43.054;-0.040;2022-07-30T11:13:12;14.35;;;4.45;;
70142;SDS011;57509;43.054;-0.040;2022-07-30T11:16:03;8.68;;;3.58;;
70142;SDS011;57509;43.054;-0.040;2022-07-30T11:21:46;3.40;;;2.95;;
70142;SDS011;57509;43.054;-0.040;2022-07-30T11:28:08;3.25;;;2.95;;
70142;SDS011;57509;43.054;-0.040;2022-07-30T11:40:07;8.23;;;3.22;;
70142;SDS011;57509;43.054;-0.040;2022-07-30T11:43:13;6.90;;;3.67;;
70142;SDS011;57509;43.054;-0.040;2022-07-30T11:46:09;11.48;;;3.22;;
70142;SDS011;57509;43.054;-0.040;2022-07-30T11:48:56;5.60;;;3.42;;
70142;SDS011;57509;43.054;-0.040;2022-07-30T11:51:45;10.93;;;4.05;;
70142;SDS011;57509;43.054;-0.040;2022-07-30T11:54:25;4.47;;;3.22;;
70142;SDS011;57509;43.054;-0.040;2022-07-30T11:57:20;4.45;;;3.05;;
70142;SDS011;57509;43.054;-0.040;2022-07-30T12:00:18;6.78;;;2.95;;
70142;SDS011;57509;43.054;-0.040;2022-07-30T12:03:33;4.07;;;3.00;;
70142;SDS011;57509;43.054;-0.040;2022-07-30T12:06:12;7.10;;;2.83;;
70142;SDS011;57509;43.054;-0.040;2022-07-30T12:09:14;5.82;;;2.85;;
70142;SDS011;57509;43.054;-0.040;2022-07-30T12:12:23;8.80;;;3.03;;
70142;SDS011;57509;43.054;-0.040;2022-07-30T12:14:53;4.30;;;3.10;;
70142;SDS011;57509;43.054;-0.040;2022-07-30T12:20:20;3.80;;;3.05;;
70142;SDS011;57509;43.054;-0.040;2022-07-30T12:23:19;14.20;;;3.47;;
70142;SDS011;57509;43.054;-0.040;2022-07-30T12:26:21;2.60;;;2.03;;
70142;SDS011;57509;43.054;-0.040;2022-07-30T12:29:19;11.15;;;2.88;;
70142;SDS011;57509;43.054;-0.040;2022-07-30T12:32:03;13.07;;;2.92;;
70142;SDS011;57509;43.054;-0.040;2022-07-30T12:38:03;5.15;;;2.42;;
70142;SDS011;57509;43.054;-0.040;2022-07-30T12:46:49;7.40;;;2.95;;
70142;SDS011;57509;43.054;-0.040;2022-07-30T12:49:54;3.78;;;2.67;;
70142;SDS011;57509;43.054;-0.040;2022-07-30T12:53:10;6.18;;;3.03;;
70142;SDS011;57509;43.054;-0.040;2022-07-30T12:55:46;3.83;;;2.70;;
70142;SDS011;57509;43.054;-0.040;2022-07-30T12:58:45;3.95;;;3.25;;
70142;SDS011;57509;43.054;-0.040;2022-07-30T13:01:42;3.25;;;2.95;;
70142;SDS011;57509;43.054;-0.040;2022-07-30T13:04:26;2.60;;;2.33;;
70142;SDS011;57509;43.054;-0.040;2022-07-30T13:07:10;9.45;;;3.15;;
70142;SDS011;57509;43.054;-0.040;2022-07-30T13:10:04;5.63;;;2.63;;
70142;SDS011;57509;43.054;-0.040;2022-07-30T13:12:46;3.00;;;2.28;;
70142;SDS011;57509;43.054;-0.040;2022-07-30T13:15:30;3.88;;;2.05;;
70142;SDS011;57509;43.054;-0.040;2022-07-30T13:18:17;5.07;;;2.55;;
70142;SDS011;57509;43.054;-0.040;2022-07-30T13:20:56;3.33;;;2.40;;
70142;SDS011;57509;43.054;-0.040;2022-07-30T13:23:37;6.05;;;2.45;;
70142;SDS011;57509;43.054;-0.040;2022-07-30T13:26:21;6.05;;;2.88;;
70142;SDS011;57509;43.054;-0.040;2022-07-30T13:35:09;6.80;;;2.08;;
70142;SDS011;57509;43.054;-0.040;2022-07-30T13:37:50;2.33;;;2.13;;
70142;SDS011;57509;43.054;-0.040;2022-07-30T13:40:23;6.78;;;2.15;;
70142;SDS011;57509;43.054;-0.040;2022-07-30T13:43:09;2.58;;;1.88;;
70142;SDS011;57509;43.054;-0.040;2022-07-30T13:45:50;4.28;;;1.88;;
70142;SDS011;57509;43.054;-0.040;2022-07-30T13:48:45;6.80;;;2.20;;
70142;SDS011;57509;43.054;-0.040;2022-07-30T13:51:44;3.58;;;1.73;;
70142;SDS011;57509;43.054;-0.040;2022-07-30T13:54:12;2.38;;;1.95;;
70142;SDS011;57509;43.054;-0.040;2022-07-30T14:00:12;2.97;;;2.20;;
70142;SDS011;57509;43.054;-0.040;2022-07-30T14:03:01;6.57;;;2.07;;
70142;SDS011;57509;43.054;-0.040;2022-07-30T14:30:06;4.47;;;1.85;;
70142;SDS011;57509;43.054;-0.040;2022-07-30T14:39:15;3.40;;;1.70;;
70142;SDS011;57509;43.054;-0.040;2022-07-30T14:42:15;3.63;;;2.15;;
70142;SDS011;57509;43.054;-0.040;2022-07-30T14:45:08;2.80;;;2.00;;
70142;SDS011;57509;43.054;-0.040;2022-07-30T14:47:47;1.98;;;1.45;;
70142;SDS011;57509;43.054;-0.040;2022-07-30T14:50:46;3.20;;;1.90;;
70142;SDS011;57509;43.054;-0.040;2022-07-30T14:53:58;3.58;;;2.35;;
70142;SDS011;57509;43.054;-0.040;2022-07-30T14:57:07;3.40;;;1.80;;
70142;SDS011;57509;43.054;-0.040;2022-07-30T15:03:15;3.28;;;1.85;;
70142;SDS011;57509;43.054;-0.040;2022-07-30T15:05:52;3.70;;;1.88;;
70142;SDS011;57509;43.054;-0.040;2022-07-30T15:08:32;3.13;;;1.65;;
70142;SDS011;57509;43.054;-0.040;2022-07-30T15:11:10;2.65;;;1.70;;
70142;SDS011;57509;43.054;-0.040;2022-07-30T15:14:06;3.00;;;1.85;;
70142;SDS011;57509;43.054;-0.040;2022-07-30T15:16:45;4.82;;;1.65;;
70142;SDS011;57509;43.054;-0.040;2022-07-30T15:19:23;5.45;;;1.88;;
70142;SDS011;57509;43.054;-0.040;2022-07-30T15:22:22;1.98;;;1.85;;
70142;SDS011;57509;43.054;-0.040;2022-07-30T15:28:16;3.13;;;1.58;;
70142;SDS011;57509;43.054;-0.040;2022-07-30T15:30:52;2.13;;;1.90;;
70142;SDS011;57509;43.054;-0.040;2022-07-30T15:33:30;2.58;;;1.80;;
70142;SDS011;57509;43.054;-0.040;2022-07-30T15:36:17;3.88;;;2.10;;
70142;SDS011;57509;43.054;-0.040;2022-07-30T15:38:59;1.58;;;1.48;;
70142;SDS011;57509;43.054;-0.040;2022-07-30T15:41:35;3.35;;;1.95;;
70142;SDS011;57509;43.054;-0.040;2022-07-30T15:44:11;3.40;;;1.90;;
70142;SDS011;57509;43.054;-0.040;2022-07-30T15:47:09;7.07;;;1.70;;
70142;SDS011;57509;43.054;-0.040;2022-07-30T15:49:50;2.00;;;1.67;;
70142;SDS011;57509;43.054;-0.040;2022-07-30T15:52:49;4.95;;;1.80;;
70142;SDS011;57509;43.054;-0.040;2022-07-30T15:55:27;6.88;;;2.13;;
70142;SDS011;57509;43.054;-0.040;2022-07-30T15:58:05;2.38;;;1.73;;
70142;SDS011;57509;43.054;-0.040;2022-07-30T16:00:51;2.47;;;1.90;;
70142;SDS011;57509;43.054;-0.040;2022-07-30T16:03:27;2.33;;;1.50;;
70142;SDS011;57509;43.054;-0.040;2022-07-30T16:06:12;2.10;;;1.52;;
70142;SDS011;57509;43.054;-0.040;2022-07-30T16:09:08;3.08;;;1.77;;
70142;SDS011;57509;43.054;-0.040;2022-07-30T16:11:53;3.22;;;1.55;;
70142;SDS011;57509;43.054;-0.040;2022-07-30T16:14:39;2.40;;;1.52;;
70142;SDS011;57509;43.054;-0.040;2022-07-30T16:17:33;2.85;;;2.10;;
70142;SDS011;57509;43.054;-0.040;2022-07-30T16:20:30;2.60;;;1.77;;
70142;SDS011;57509;43.054;-0.040;2022-07-30T16:23:26;4.97;;;2.00;;
70142;SDS011;57509;43.054;-0.040;2022-07-30T16:26:03;3.58;;;1.73;;
70142;SDS011;57509;43.054;-0.040;2022-07-30T16:28:35;2.97;;;2.13;;
70142;SDS011;57509;43.054;-0.040;2022-07-30T16:31:17;3.30;;;1.50;;
70142;SDS011;57509;43.054;-0.040;2022-07-30T16:34:20;2.33;;;1.63;;
70142;SDS011;57509;43.054;-0.040;2022-07-30T16:39:41;5.18;;;2.03;;
70142;SDS011;57509;43.054;-0.040;2022-07-30T16:42:18;4.78;;;1.77;;
70142;SDS011;57509;43.054;-0.040;2022-07-30T16:45:01;5.97;;;1.83;;
70142;SDS011;57509;43.054;-0.040;2022-07-30T16:48:00;4.95;;;1.80;;
70142;SDS011;57509;43.054;-0.040;2022-07-30T16:50:40;3.90;;;1.80;;
70142;SDS011;57509;43.054;-0.040;2022-07-30T16:53:37;2.95;;;1.50;;
70142;SDS011;57509;43.054;-0.040;2022-07-30T16:56:13;1.73;;;1.55;;
70142;SDS011;57509;43.054;-0.040;2022-07-30T16:58:50;2.03;;;1.83;;
70142;SDS011;57509;43.054;-0.040;2022-07-30T17:01:53;8.68;;;1.73;;
70142;SDS011;57509;43.054;-0.040;2022-07-30T17:04:40;6.15;;;1.50;;
70142;SDS011;57509;43.054;-0.040;2022-07-30T17:07:19;2.90;;;1.75;;
70142;SDS011;57509;43.054;-0.040;2022-07-30T17:09:57;2.55;;;1.88;;
70142;SDS011;57509;43.054;-0.040;2022-07-30T17:13:02;6.90;;;2.50;;
70142;SDS011;57509;43.054;-0.040;2022-07-30T17:16:07;2.50;;;1.98;;
70142;SDS011;57509;43.054;-0.040;2022-07-30T17:18:52;5.03;;;2.17;;
70142;SDS011;57509;43.054;-0.040;2022-07-30T17:21:18;3.30;;;2.03;;
70142;SDS011;57509;43.054;-0.040;2022-07-30T17:23:59;2.42;;;1.85;;
70142;SDS011;57509;43.054;-0.040;2022-07-30T17:26:35;2.45;;;2.25;;
70142;SDS011;57509;43.054;-0.040;2022-07-30T17:29:19;7.72;;;1.75;;
70142;SDS011;57509;43.054;-0.040;2022-07-30T17:31:55;4.50;;;2.15;;
70142;SDS011;57509;43.054;-0.040;2022-07-30T17:34:38;3.38;;;2.17;;
70142;SDS011;57509;43.054;-0.040;2022-07-30T17:37:19;2.55;;;1.98;;
70142;SDS011;57509;43.054;-0.040;2022-07-30T17:39:58;10.50;;;1.70;;
70142;SDS011;57509;43.054;-0.040;2022-07-30T17:45:30;4.03;;;1.95;;
70142;SDS011;57509;43.054;-0.040;2022-07-30T17:48:07;3.78;;;2.17;;
70142;SDS011;57509;43.054;-0.040;2022-07-30T17:50:46;4.60;;;2.42;;
70142;SDS011;57509;43.054;-0.040;2022-07-30T17:53:39;4.53;;;1.83;;
70142;SDS011;57509;43.054;-0.040;2022-07-30T17:56:17;2.65;;;1.85;;
70142;SDS011;57509;43.054;-0.040;2022-07-30T17:59:04;2.33;;;1.83;;
70142;SDS011;57509;43.054;-0.040;2022-07-30T18:01:49;2.42;;;1.98;;
70142;SDS011;57509;43.054;-0.040;2022-07-30T18:04:28;1.98;;;1.77;;
70142;SDS011;57509;43.054;-0.040;2022-07-30T18:07:04;2.28;;;1.77;;
70142;SDS011;57509;43.054;-0.040;2022-07-30T18:10:01;3.53;;;2.08;;
70142;SDS011;57509;43.054;-0.040;2022-07-30T18:13:01;1.80;;;1.67;;
70142;SDS011;57509;43.054;-0.040;2022-07-30T18:15:40;3.53;;;1.92;;
70142;SDS011;57509;43.054;-0.040;2022-07-30T18:18:16;2.45;;;1.90;;
70142;SDS011;57509;43.054;-0.040;2022-07-30T18:20:55;2.60;;;2.40;;
70142;SDS011;57509;43.054;-0.040;2022-07-30T18:23:24;7.55;;;2.10;;
70142;SDS011;57509;43.054;-0.040;2022-07-30T18:26:03;2.95;;;2.13;;
70142;SDS011;57509;43.054;-0.040;2022-07-30T18:28:41;3.30;;;2.13;;
70142;SDS011;57509;43.054;-0.040;2022-07-30T18:31:09;2.95;;;2.08;;
70142;SDS011;57509;43.054;-0.040;2022-07-30T18:33:56;5.03;;;2.55;;
70142;SDS011;57509;43.054;-0.040;2022-07-30T18:36:32;3.05;;;2.70;;
70142;SDS011;57509;43.054;-0.040;2022-07-30T18:39:17;5.30;;;2.08;;
70142;SDS011;57509;43.054;-0.040;2022-07-30T18:41:53;2.67;;;1.58;;
70142;SDS011;57509;43.054;-0.040;2022-07-30T18:44:31;9.23;;;1.67;;
70142;SDS011;57509;43.054;-0.040;2022-07-30T18:47:08;3.85;;;2.15;;
70142;SDS011;57509;43.054;-0.040;2022-07-30T18:49:41;5.30;;;2.43;;
70142;SDS011;57509;43.054;-0.040;2022-07-30T18:52:25;6.20;;;2.17;;
70142;SDS011;57509;43.054;-0.040;2022-07-30T18:55:06;6.90;;;2.03;;
70142;SDS011;57509;43.054;-0.040;2022-07-30T18:57:50;2.70;;;1.75;;
70142;SDS011;57509;43.054;-0.040;2022-07-30T19:00:33;10.27;;;2.40;;
70142;SDS011;57509;43.054;-0.040;2022-07-30T19:03:12;8.45;;;2.33;;
70142;SDS011;57509;43.054;-0.040;2022-07-30T19:08:54;2.35;;;2.13;;
70142;SDS011;57509;43.054;-0.040;2022-07-30T19:11:30;13.23;;;2.53;;
70142;SDS011;57509;43.054;-0.040;2022-07-30T19:14:08;3.58;;;2.22;;
70142;SDS011;57509;43.054;-0.040;2022-07-30T19:16:44;6.28;;;2.45;;
70142;SDS011;57509;43.054;-0.040;2022-07-30T19:19:45;8.37;;;2.73;;
70142;SDS011;57509;43.054;-0.040;2022-07-30T19:22:28;10.18;;;2.50;;
70142;SDS011;57509;43.054;-0.040;2022-07-30T19:25:12;6.03;;;2.10;;
70142;SDS011;57509;43.054;-0.040;2022-07-30T19:27:50;7.55;;;2.45;;
70142;SDS011;57509;43.054;-0.040;2022-07-30T19:30:29;3.63;;;2.03;;
70142;SDS011;57509;43.054;-0.040;2022-07-30T19:33:06;23.08;;;2.58;;
70142;SDS011;57509;43.054;-0.040;2022-07-30T19:35:52;10.05;;;1.90;;
70142;SDS011;57509;43.054;-0.040;2022-07-30T19:38:28;9.90;;;3.38;;
70142;SDS011;57509;43.054;-0.040;2022-07-30T19:41:06;6.53;;;2.85;;
70142;SDS011;57509;43.054;-0.040;2022-07-30T19:43:48;8.80;;;2.67;;